sensor_id;sensor_type;location;lat;lon;timestamp;P1;durP1;ratioP1;P2;durP2;ratioP2
14847;SDS011;7516;43.570;1.448;2024-01-07T00:01:34;3.77;;;2.00;;
14847;SDS011;7516;43.570;1.448;2024-01-07T00:04:01;2.83;;;2.20;;
14847;SDS011;7516;43.570;1.448;2024-01-07T00:06:30;6.13;;;2.40;;
14847;SDS011;7516;43.570;1.448;2024-01-07T00:08:57;3.20;;;2.00;;
14847;SDS011;7516;43.570;1.448;2024-01-07T00:11:25;2.73;;;2.00;;
14847;SDS011;7516;43.570;1.448;2024-01-07T00:13:52;2.57;;;1.90;;
14847;SDS011;7516;43.570;1.448;2024-01-07T00:16:20;3.60;;;2.57;;
14847;SDS011;7516;43.570;1.448;2024-01-07T00:18:47;3.47;;;2.13;;
14847;SDS011;7516;43.570;1.448;2024-01-07T00:21:15;3.23;;;2.20;;
14847;SDS011;7516;43.570;1.448;2024-01-07T00:23:46;3.10;;;2.20;;
14847;SDS011;7516;43.570;1.448;2024-01-07T00:26:13;4.03;;;2.10;;
14847;SDS011;7516;43.570;1.448;2024-01-07T00:28:41;3.07;;;2.30;;
14847;SDS011;7516;43.570;1.448;2024-01-07T00:31:08;2.27;;;1.97;;
14847;SDS011;7516;43.570;1.448;2024-01-07T00:33:37;3.10;;;2.00;;
14847;SDS011;7516;43.570;1.448;2024-01-07T00:36:05;3.80;;;2.30;;
14847;SDS011;7516;43.570;1.448;2024-01-07T00:38:32;4.00;;;2.10;;
14847;SDS011;7516;43.570;1.448;2024-01-07T00:41:01;3.27;;;2.23;;
14847;SDS011;7516;43.570;1.448;2024-01-07T00:43:29;3.90;;;2.23;;
14847;SDS011;7516;43.570;1.448;2024-01-07T00:45:57;2.70;;;2.00;;
14847;SDS011;7516;43.570;1.448;2024-01-07T00:48:24;3.10;;;1.93;;
14847;SDS011;7516;43.570;1.448;2024-01-07T00:50:52;6.57;;;2.20;;
14847;SDS011;7516;43.570;1.448;2024-01-07T00:53:20;3.07;;;1.93;;
14847;SDS011;7516;43.570;1.448;2024-01-07T00:55:47;4.23;;;2.47;;
14847;SDS011;7516;43.570;1.448;2024-01-07T00:58:16;4.40;;;2.47;;
14847;SDS011;7516;43.570;1.448;2024-01-07T01:00:44;2.77;;;2.20;;
14847;SDS011;7516;43.570;1.448;2024-01-07T01:03:11;4.40;;;2.30;;
14847;SDS011;7516;43.570;1.448;2024-01-07T01:05:39;4.00;;;2.33;;
14847;SDS011;7516;43.570;1.448;2024-01-07T01:08:06;4.17;;;2.43;;
14847;SDS011;7516;43.570;1.448;2024-01-07T01:10:34;2.47;;;2.00;;
14847;SDS011;7516;43.570;1.448;2024-01-07T01:13:01;4.60;;;2.20;;
14847;SDS011;7516;43.570;1.448;2024-01-07T01:15:30;6.10;;;2.97;;
14847;SDS011;7516;43.570;1.448;2024-01-07T01:17:57;4.23;;;2.53;;
14847;SDS011;7516;43.570;1.448;2024-01-07T01:20:25;3.50;;;2.30;;
14847;SDS011;7516;43.570;1.448;2024-01-07T01:22:52;3.43;;;2.63;;
14847;SDS011;7516;43.570;1.448;2024-01-07T01:25:20;3.30;;;2.30;;
14847;SDS011;7516;43.570;1.448;2024-01-07T01:27:47;3.33;;;2.37;;
14847;SDS011;7516;43.570;1.448;2024-01-07T01:30:15;3.93;;;2.40;;
14847;SDS011;7516;43.570;1.448;2024-01-07T01:32:44;4.37;;;2.30;;
14847;SDS011;7516;43.570;1.448;2024-01-07T01:35:11;3.90;;;2.23;;
14847;SDS011;7516;43.570;1.448;2024-01-07T01:37:39;4.77;;;2.50;;
14847;SDS011;7516;43.570;1.448;2024-01-07T01:40:07;3.00;;;2.27;;
14847;SDS011;7516;43.570;1.448;2024-01-07T01:42:35;4.90;;;2.60;;
14847;SDS011;7516;43.570;1.448;2024-01-07T01:45:02;3.80;;;2.20;;
14847;SDS011;7516;43.570;1.448;2024-01-07T01:47:30;3.10;;;2.40;;
14847;SDS011;7516;43.570;1.448;2024-01-07T01:50:00;3.17;;;2.40;;
14847;SDS011;7516;43.570;1.448;2024-01-07T01:52:27;3.17;;;2.53;;
14847;SDS011;7516;43.570;1.448;2024-01-07T01:54:56;3.40;;;2.30;;
14847;SDS011;7516;43.570;1.448;2024-01-07T01:57:24;2.93;;;2.50;;
14847;SDS011;7516;43.570;1.448;2024-01-07T01:59:58;3.37;;;2.60;;
14847;SDS011;7516;43.570;1.448;2024-01-07T02:02:29;4.43;;;2.60;;
14847;SDS011;7516;43.570;1.448;2024-01-07T02:05:00;3.50;;;2.40;;
14847;SDS011;7516;43.570;1.448;2024-01-07T02:07:28;5.53;;;2.70;;
14847;SDS011;7516;43.570;1.448;2024-01-07T02:09:57;4.63;;;2.57;;
14847;SDS011;7516;43.570;1.448;2024-01-07T02:12:25;4.13;;;2.50;;
14847;SDS011;7516;43.570;1.448;2024-01-07T02:14:52;3.40;;;2.67;;
14847;SDS011;7516;43.570;1.448;2024-01-07T02:17:20;4.20;;;2.40;;
14847;SDS011;7516;43.570;1.448;2024-01-07T02:19:48;3.30;;;2.47;;
14847;SDS011;7516;43.570;1.448;2024-01-07T02:22:17;3.67;;;2.50;;
14847;SDS011;7516;43.570;1.448;2024-01-07T02:24:46;4.10;;;2.63;;
14847;SDS011;7516;43.570;1.448;2024-01-07T02:27:13;3.13;;;2.40;;
14847;SDS011;7516;43.570;1.448;2024-01-07T02:29:41;3.90;;;2.30;;
14847;SDS011;7516;43.570;1.448;2024-01-07T02:32:08;5.80;;;2.47;;
14847;SDS011;7516;43.570;1.448;2024-01-07T02:34:36;5.40;;;3.10;;
14847;SDS011;7516;43.570;1.448;2024-01-07T02:37:03;4.27;;;2.73;;
14847;SDS011;7516;43.570;1.448;2024-01-07T02:39:30;3.63;;;3.07;;
14847;SDS011;7516;43.570;1.448;2024-01-07T02:41:59;4.87;;;2.63;;
14847;SDS011;7516;43.570;1.448;2024-01-07T02:44:27;4.00;;;3.00;;
14847;SDS011;7516;43.570;1.448;2024-01-07T02:46:55;4.60;;;2.77;;
14847;SDS011;7516;43.570;1.448;2024-01-07T02:49:22;3.33;;;2.67;;
14847;SDS011;7516;43.570;1.448;2024-01-07T02:51:50;5.83;;;2.90;;
14847;SDS011;7516;43.570;1.448;2024-01-07T02:54:17;4.63;;;2.80;;
14847;SDS011;7516;43.570;1.448;2024-01-07T02:56:44;4.10;;;2.80;;
14847;SDS011;7516;43.570;1.448;2024-01-07T02:59:13;4.00;;;2.53;;
14847;SDS011;7516;43.570;1.448;2024-01-07T03:01:41;4.57;;;2.90;;
14847;SDS011;7516;43.570;1.448;2024-01-07T03:04:09;4.77;;;2.63;;
14847;SDS011;7516;43.570;1.448;2024-01-07T03:06:38;4.87;;;2.90;;
14847;SDS011;7516;43.570;1.448;2024-01-07T03:09:06;3.47;;;2.40;;
14847;SDS011;7516;43.570;1.448;2024-01-07T03:11:38;4.53;;;2.40;;
14847;SDS011;7516;43.570;1.448;2024-01-07T03:14:06;6.13;;;2.67;;
14847;SDS011;7516;43.570;1.448;2024-01-07T03:16:35;4.70;;;2.50;;
14847;SDS011;7516;43.570;1.448;2024-01-07T03:19:03;4.00;;;2.60;;
14847;SDS011;7516;43.570;1.448;2024-01-07T03:21:30;3.10;;;2.40;;
14847;SDS011;7516;43.570;1.448;2024-01-07T03:23:58;3.60;;;2.30;;
14847;SDS011;7516;43.570;1.448;2024-01-07T03:26:29;2.93;;;1.90;;
14847;SDS011;7516;43.570;1.448;2024-01-07T03:28:57;6.00;;;2.40;;
14847;SDS011;7516;43.570;1.448;2024-01-07T03:31:27;3.97;;;2.33;;
14847;SDS011;7516;43.570;1.448;2024-01-07T03:33:56;4.60;;;2.50;;
14847;SDS011;7516;43.570;1.448;2024-01-07T03:36:23;3.07;;;2.50;;
14847;SDS011;7516;43.570;1.448;2024-01-07T03:38:51;5.40;;;2.30;;
14847;SDS011;7516;43.570;1.448;2024-01-07T03:41:19;2.87;;;2.37;;
14847;SDS011;7516;43.570;1.448;2024-01-07T03:43:47;3.50;;;2.43;;
14847;SDS011;7516;43.570;1.448;2024-01-07T03:46:16;4.20;;;2.50;;
14847;SDS011;7516;43.570;1.448;2024-01-07T03:48:43;3.73;;;2.43;;
14847;SDS011;7516;43.570;1.448;2024-01-07T03:51:12;3.93;;;2.37;;
14847;SDS011;7516;43.570;1.448;2024-01-07T03:53:40;3.30;;;2.47;;
14847;SDS011;7516;43.570;1.448;2024-01-07T03:56:07;2.87;;;2.20;;
14847;SDS011;7516;43.570;1.448;2024-01-07T03:58:35;4.20;;;2.50;;
14847;SDS011;7516;43.570;1.448;2024-01-07T04:01:02;3.60;;;2.50;;
14847;SDS011;7516;43.570;1.448;2024-01-07T04:03:30;2.57;;;2.30;;
14847;SDS011;7516;43.570;1.448;2024-01-07T04:05:57;3.27;;;2.07;;
14847;SDS011;7516;43.570;1.448;2024-01-07T04:08:26;3.60;;;2.80;;
14847;SDS011;7516;43.570;1.448;2024-01-07T04:10:54;2.57;;;2.07;;
14847;SDS011;7516;43.570;1.448;2024-01-07T04:13:21;3.73;;;2.43;;
14847;SDS011;7516;43.570;1.448;2024-01-07T04:15:49;3.07;;;2.33;;
14847;SDS011;7516;43.570;1.448;2024-01-07T04:18:16;4.10;;;2.10;;
14847;SDS011;7516;43.570;1.448;2024-01-07T04:20:44;3.17;;;2.33;;
14847;SDS011;7516;43.570;1.448;2024-01-07T04:23:11;3.07;;;2.30;;
14847;SDS011;7516;43.570;1.448;2024-01-07T04:25:40;3.93;;;2.10;;
14847;SDS011;7516;43.570;1.448;2024-01-07T04:28:09;4.80;;;2.37;;
14847;SDS011;7516;43.570;1.448;2024-01-07T04:30:36;3.53;;;2.07;;
14847;SDS011;7516;43.570;1.448;2024-01-07T04:33:04;3.00;;;2.40;;
14847;SDS011;7516;43.570;1.448;2024-01-07T04:35:31;3.50;;;2.40;;
14847;SDS011;7516;43.570;1.448;2024-01-07T04:37:59;2.40;;;2.20;;
14847;SDS011;7516;43.570;1.448;2024-01-07T04:40:26;2.47;;;2.20;;
14847;SDS011;7516;43.570;1.448;2024-01-07T04:42:55;2.80;;;2.33;;
14847;SDS011;7516;43.570;1.448;2024-01-07T04:45:23;3.20;;;2.47;;
14847;SDS011;7516;43.570;1.448;2024-01-07T04:47:50;3.37;;;2.33;;
14847;SDS011;7516;43.570;1.448;2024-01-07T04:50:18;3.30;;;2.30;;
14847;SDS011;7516;43.570;1.448;2024-01-07T04:52:45;3.10;;;2.30;;
14847;SDS011;7516;43.570;1.448;2024-01-07T04:55:13;2.17;;;1.90;;
14847;SDS011;7516;43.570;1.448;2024-01-07T04:57:40;2.40;;;2.10;;
14847;SDS011;7516;43.570;1.448;2024-01-07T05:00:10;3.83;;;2.47;;
14847;SDS011;7516;43.570;1.448;2024-01-07T05:02:38;3.60;;;2.30;;
14847;SDS011;7516;43.570;1.448;2024-01-07T05:05:07;2.80;;;2.40;;
14847;SDS011;7516;43.570;1.448;2024-01-07T05:07:35;3.20;;;2.60;;
14847;SDS011;7516;43.570;1.448;2024-01-07T05:10:04;2.90;;;2.37;;
14847;SDS011;7516;43.570;1.448;2024-01-07T05:12:32;2.70;;;2.27;;
14847;SDS011;7516;43.570;1.448;2024-01-07T05:14:59;2.70;;;2.30;;
14847;SDS011;7516;43.570;1.448;2024-01-07T05:17:30;4.83;;;2.50;;
14847;SDS011;7516;43.570;1.448;2024-01-07T05:19:57;3.90;;;2.40;;
14847;SDS011;7516;43.570;1.448;2024-01-07T05:22:25;4.53;;;2.60;;
14847;SDS011;7516;43.570;1.448;2024-01-07T05:24:52;3.43;;;2.23;;
14847;SDS011;7516;43.570;1.448;2024-01-07T05:27:20;2.87;;;2.10;;
14847;SDS011;7516;43.570;1.448;2024-01-07T05:29:47;4.13;;;2.20;;
14847;SDS011;7516;43.570;1.448;2024-01-07T05:32:15;3.23;;;2.70;;
14847;SDS011;7516;43.570;1.448;2024-01-07T05:34:44;4.07;;;2.50;;
14847;SDS011;7516;43.570;1.448;2024-01-07T05:37:11;3.00;;;2.50;;
14847;SDS011;7516;43.570;1.448;2024-01-07T05:39:38;4.17;;;2.60;;
14847;SDS011;7516;43.570;1.448;2024-01-07T05:42:06;3.63;;;2.90;;
14847;SDS011;7516;43.570;1.448;2024-01-07T05:44:33;3.17;;;2.63;;
14847;SDS011;7516;43.570;1.448;2024-01-07T05:47:01;3.80;;;2.53;;
14847;SDS011;7516;43.570;1.448;2024-01-07T05:49:29;3.60;;;2.73;;
14847;SDS011;7516;43.570;1.448;2024-01-07T05:51:58;3.27;;;2.37;;
14847;SDS011;7516;43.570;1.448;2024-01-07T05:54:25;3.00;;;2.60;;
14847;SDS011;7516;43.570;1.448;2024-01-07T05:56:52;3.60;;;2.90;;
14847;SDS011;7516;43.570;1.448;2024-01-07T05:59:20;4.17;;;2.47;;
14847;SDS011;7516;43.570;1.448;2024-01-07T06:01:48;3.00;;;2.50;;
14847;SDS011;7516;43.570;1.448;2024-01-07T06:04:15;4.17;;;2.50;;
14847;SDS011;7516;43.570;1.448;2024-01-07T06:06:43;4.37;;;2.33;;
14847;SDS011;7516;43.570;1.448;2024-01-07T06:09:12;3.67;;;2.60;;
14847;SDS011;7516;43.570;1.448;2024-01-07T06:11:39;2.53;;;2.30;;
14847;SDS011;7516;43.570;1.448;2024-01-07T06:14:06;3.53;;;2.53;;
14847;SDS011;7516;43.570;1.448;2024-01-07T06:16:34;3.93;;;2.53;;
14847;SDS011;7516;43.570;1.448;2024-01-07T06:19:01;3.77;;;2.70;;
14847;SDS011;7516;43.570;1.448;2024-01-07T06:21:29;2.87;;;2.43;;
14847;SDS011;7516;43.570;1.448;2024-01-07T06:23:56;3.70;;;2.30;;
14847;SDS011;7516;43.570;1.448;2024-01-07T06:26:25;3.70;;;3.00;;
14847;SDS011;7516;43.570;1.448;2024-01-07T06:28:52;3.00;;;2.20;;
14847;SDS011;7516;43.570;1.448;2024-01-07T06:31:20;3.23;;;2.10;;
14847;SDS011;7516;43.570;1.448;2024-01-07T06:33:47;2.60;;;2.17;;
14847;SDS011;7516;43.570;1.448;2024-01-07T06:36:15;2.27;;;1.97;;
14847;SDS011;7516;43.570;1.448;2024-01-07T06:38:42;3.67;;;2.00;;
14847;SDS011;7516;43.570;1.448;2024-01-07T06:41:09;3.63;;;2.20;;
14847;SDS011;7516;43.570;1.448;2024-01-07T06:43:39;3.20;;;2.47;;
14847;SDS011;7516;43.570;1.448;2024-01-07T06:46:07;2.53;;;2.00;;
14847;SDS011;7516;43.570;1.448;2024-01-07T06:48:34;2.43;;;2.00;;
14847;SDS011;7516;43.570;1.448;2024-01-07T06:51:02;3.43;;;1.93;;
14847;SDS011;7516;43.570;1.448;2024-01-07T06:53:29;2.40;;;2.10;;
14847;SDS011;7516;43.570;1.448;2024-01-07T06:55:57;2.53;;;2.10;;
14847;SDS011;7516;43.570;1.448;2024-01-07T06:58:24;3.60;;;2.07;;
14847;SDS011;7516;43.570;1.448;2024-01-07T07:00:53;3.57;;;2.23;;
14847;SDS011;7516;43.570;1.448;2024-01-07T07:03:21;2.90;;;2.20;;
14847;SDS011;7516;43.570;1.448;2024-01-07T07:05:48;3.30;;;2.50;;
14847;SDS011;7516;43.570;1.448;2024-01-07T07:08:16;3.90;;;2.20;;
14847;SDS011;7516;43.570;1.448;2024-01-07T07:10:43;3.20;;;2.10;;
14847;SDS011;7516;43.570;1.448;2024-01-07T07:13:11;5.53;;;2.23;;
14847;SDS011;7516;43.570;1.448;2024-01-07T07:15:39;2.53;;;2.00;;
14847;SDS011;7516;43.570;1.448;2024-01-07T07:18:08;2.63;;;2.00;;
14847;SDS011;7516;43.570;1.448;2024-01-07T07:20:36;2.50;;;2.30;;
14847;SDS011;7516;43.570;1.448;2024-01-07T07:23:03;2.60;;;1.80;;
14847;SDS011;7516;43.570;1.448;2024-01-07T07:25:31;2.50;;;2.30;;
14847;SDS011;7516;43.570;1.448;2024-01-07T07:27:58;2.23;;;1.90;;
14847;SDS011;7516;43.570;1.448;2024-01-07T07:30:26;2.37;;;1.80;;
14847;SDS011;7516;43.570;1.448;2024-01-07T07:32:55;2.77;;;2.00;;
14847;SDS011;7516;43.570;1.448;2024-01-07T07:35:24;2.03;;;1.80;;
14847;SDS011;7516;43.570;1.448;2024-01-07T07:37:51;3.03;;;1.97;;
14847;SDS011;7516;43.570;1.448;2024-01-07T07:40:18;2.63;;;1.97;;
14847;SDS011;7516;43.570;1.448;2024-01-07T07:42:46;2.20;;;2.00;;
14847;SDS011;7516;43.570;1.448;2024-01-07T07:45:14;2.73;;;2.13;;
14847;SDS011;7516;43.570;1.448;2024-01-07T07:47:41;2.47;;;1.90;;
14847;SDS011;7516;43.570;1.448;2024-01-07T07:50:10;2.27;;;1.63;;
14847;SDS011;7516;43.570;1.448;2024-01-07T07:52:40;2.13;;;1.90;;
14847;SDS011;7516;43.570;1.448;2024-01-07T07:55:09;2.70;;;2.03;;
14847;SDS011;7516;43.570;1.448;2024-01-07T07:57:36;3.80;;;2.13;;
14847;SDS011;7516;43.570;1.448;2024-01-07T08:00:04;3.33;;;2.17;;
14847;SDS011;7516;43.570;1.448;2024-01-07T08:02:32;3.07;;;1.90;;
14847;SDS011;7516;43.570;1.448;2024-01-07T08:05:00;3.23;;;2.03;;
14847;SDS011;7516;43.570;1.448;2024-01-07T08:07:28;1.93;;;1.73;;
14847;SDS011;7516;43.570;1.448;2024-01-07T08:09:56;3.00;;;1.93;;
14847;SDS011;7516;43.570;1.448;2024-01-07T08:12:24;2.10;;;1.77;;
14847;SDS011;7516;43.570;1.448;2024-01-07T08:14:52;2.27;;;1.80;;
14847;SDS011;7516;43.570;1.448;2024-01-07T08:17:19;2.20;;;2.00;;
14847;SDS011;7516;43.570;1.448;2024-01-07T08:19:46;3.20;;;1.83;;
14847;SDS011;7516;43.570;1.448;2024-01-07T08:22:14;2.17;;;1.50;;
14847;SDS011;7516;43.570;1.448;2024-01-07T08:24:41;2.63;;;2.03;;
14847;SDS011;7516;43.570;1.448;2024-01-07T08:27:10;2.23;;;1.83;;
14847;SDS011;7516;43.570;1.448;2024-01-07T08:29:38;2.87;;;2.13;;
14847;SDS011;7516;43.570;1.448;2024-01-07T08:32:05;2.77;;;2.20;;
14847;SDS011;7516;43.570;1.448;2024-01-07T08:34:33;2.87;;;2.00;;
14847;SDS011;7516;43.570;1.448;2024-01-07T08:37:01;3.53;;;2.30;;
14847;SDS011;7516;43.570;1.448;2024-01-07T08:39:28;3.60;;;2.33;;
14847;SDS011;7516;43.570;1.448;2024-01-07T08:41:56;3.90;;;2.50;;
14847;SDS011;7516;43.570;1.448;2024-01-07T08:44:25;4.70;;;2.10;;
14847;SDS011;7516;43.570;1.448;2024-01-07T08:46:53;2.33;;;2.00;;
14847;SDS011;7516;43.570;1.448;2024-01-07T08:49:20;3.23;;;2.30;;
14847;SDS011;7516;43.570;1.448;2024-01-07T08:51:47;3.43;;;2.17;;
14847;SDS011;7516;43.570;1.448;2024-01-07T08:54:15;2.50;;;2.30;;
14847;SDS011;7516;43.570;1.448;2024-01-07T08:56:43;4.60;;;2.50;;
14847;SDS011;7516;43.570;1.448;2024-01-07T08:59:10;3.77;;;2.70;;
14847;SDS011;7516;43.570;1.448;2024-01-07T09:01:39;3.33;;;2.20;;
14847;SDS011;7516;43.570;1.448;2024-01-07T09:04:07;3.00;;;2.17;;
14847;SDS011;7516;43.570;1.448;2024-01-07T09:06:34;4.17;;;2.60;;
14847;SDS011;7516;43.570;1.448;2024-01-07T09:09:02;3.67;;;2.50;;
14847;SDS011;7516;43.570;1.448;2024-01-07T09:11:31;2.80;;;2.20;;
14847;SDS011;7516;43.570;1.448;2024-01-07T09:13:59;3.63;;;2.40;;
14847;SDS011;7516;43.570;1.448;2024-01-07T09:16:26;5.10;;;2.53;;
14847;SDS011;7516;43.570;1.448;2024-01-07T09:18:55;3.87;;;2.47;;
14847;SDS011;7516;43.570;1.448;2024-01-07T09:21:23;4.37;;;2.77;;
14847;SDS011;7516;43.570;1.448;2024-01-07T09:23:50;2.87;;;2.40;;
14847;SDS011;7516;43.570;1.448;2024-01-07T09:26:18;3.33;;;2.20;;
14847;SDS011;7516;43.570;1.448;2024-01-07T09:28:45;3.60;;;2.37;;
14847;SDS011;7516;43.570;1.448;2024-01-07T09:31:13;3.20;;;2.50;;
14847;SDS011;7516;43.570;1.448;2024-01-07T09:33:40;3.50;;;2.50;;
14847;SDS011;7516;43.570;1.448;2024-01-07T09:36:09;3.60;;;2.33;;
14847;SDS011;7516;43.570;1.448;2024-01-07T09:38:36;3.07;;;2.33;;
14847;SDS011;7516;43.570;1.448;2024-01-07T09:41:04;3.70;;;2.50;;
14847;SDS011;7516;43.570;1.448;2024-01-07T09:43:32;4.33;;;2.67;;
14847;SDS011;7516;43.570;1.448;2024-01-07T09:45:59;3.90;;;2.50;;
14847;SDS011;7516;43.570;1.448;2024-01-07T09:48:28;3.30;;;2.60;;
14847;SDS011;7516;43.570;1.448;2024-01-07T09:50:56;3.83;;;2.40;;
14847;SDS011;7516;43.570;1.448;2024-01-07T09:53:27;3.07;;;2.40;;
14847;SDS011;7516;43.570;1.448;2024-01-07T09:56:01;4.07;;;2.23;;
14847;SDS011;7516;43.570;1.448;2024-01-07T09:58:36;3.70;;;2.30;;
14847;SDS011;7516;43.570;1.448;2024-01-07T10:01:04;4.60;;;2.30;;
14847;SDS011;7516;43.570;1.448;2024-01-07T10:03:31;3.97;;;2.53;;
14847;SDS011;7516;43.570;1.448;2024-01-07T10:05:59;3.87;;;2.40;;
14847;SDS011;7516;43.570;1.448;2024-01-07T10:08:28;3.80;;;2.00;;
14847;SDS011;7516;43.570;1.448;2024-01-07T10:10:56;4.63;;;2.50;;
14847;SDS011;7516;43.570;1.448;2024-01-07T10:13:26;3.50;;;2.20;;
14847;SDS011;7516;43.570;1.448;2024-01-07T10:15:54;3.23;;;2.20;;
14847;SDS011;7516;43.570;1.448;2024-01-07T10:18:21;3.53;;;2.20;;
14847;SDS011;7516;43.570;1.448;2024-01-07T10:20:49;2.77;;;2.10;;
14847;SDS011;7516;43.570;1.448;2024-01-07T10:23:18;4.50;;;2.37;;
14847;SDS011;7516;43.570;1.448;2024-01-07T10:25:47;2.63;;;2.03;;
14847;SDS011;7516;43.570;1.448;2024-01-07T10:28:15;3.47;;;2.10;;
14847;SDS011;7516;43.570;1.448;2024-01-07T10:30:46;5.43;;;2.50;;
14847;SDS011;7516;43.570;1.448;2024-01-07T10:33:16;3.20;;;2.20;;
14847;SDS011;7516;43.570;1.448;2024-01-07T10:35:47;3.60;;;2.23;;
14847;SDS011;7516;43.570;1.448;2024-01-07T10:38:20;3.10;;;2.30;;
14847;SDS011;7516;43.570;1.448;2024-01-07T10:40:52;2.23;;;1.87;;
14847;SDS011;7516;43.570;1.448;2024-01-07T10:43:22;3.17;;;2.00;;
14847;SDS011;7516;43.570;1.448;2024-01-07T10:45:50;4.87;;;2.27;;
14847;SDS011;7516;43.570;1.448;2024-01-07T10:48:19;3.90;;;2.50;;
14847;SDS011;7516;43.570;1.448;2024-01-07T10:50:49;4.40;;;2.17;;
14847;SDS011;7516;43.570;1.448;2024-01-07T10:53:21;2.43;;;2.00;;
14847;SDS011;7516;43.570;1.448;2024-01-07T10:55:52;2.67;;;2.20;;
14847;SDS011;7516;43.570;1.448;2024-01-07T10:58:26;2.30;;;2.00;;
14847;SDS011;7516;43.570;1.448;2024-01-07T11:00:54;3.90;;;2.40;;
14847;SDS011;7516;43.570;1.448;2024-01-07T11:03:24;2.23;;;1.93;;
14847;SDS011;7516;43.570;1.448;2024-01-07T11:06:01;4.20;;;2.00;;
14847;SDS011;7516;43.570;1.448;2024-01-07T11:08:34;3.70;;;3.00;;
14847;SDS011;7516;43.570;1.448;2024-01-07T11:11:09;2.20;;;1.87;;
14847;SDS011;7516;43.570;1.448;2024-01-07T11:13:42;3.30;;;2.07;;
14847;SDS011;7516;43.570;1.448;2024-01-07T11:16:10;1.60;;;1.50;;
14847;SDS011;7516;43.570;1.448;2024-01-07T11:18:38;3.77;;;2.10;;
14847;SDS011;7516;43.570;1.448;2024-01-07T11:21:06;2.63;;;2.03;;
14847;SDS011;7516;43.570;1.448;2024-01-07T11:23:33;3.07;;;2.33;;
14847;SDS011;7516;43.570;1.448;2024-01-07T11:26:04;2.50;;;2.00;;
14847;SDS011;7516;43.570;1.448;2024-01-07T11:28:49;2.97;;;2.27;;
14847;SDS011;7516;43.570;1.448;2024-01-07T11:31:18;2.53;;;2.00;;
14847;SDS011;7516;43.570;1.448;2024-01-07T11:33:46;3.93;;;2.60;;
14847;SDS011;7516;43.570;1.448;2024-01-07T11:36:15;2.50;;;2.30;;
14847;SDS011;7516;43.570;1.448;2024-01-07T11:38:44;2.30;;;2.00;;
14847;SDS011;7516;43.570;1.448;2024-01-07T11:41:14;2.53;;;2.17;;
14847;SDS011;7516;43.570;1.448;2024-01-07T11:43:53;4.93;;;2.30;;
14847;SDS011;7516;43.570;1.448;2024-01-07T11:46:22;3.73;;;2.43;;
14847;SDS011;7516;43.570;1.448;2024-01-07T11:48:50;3.50;;;2.40;;
14847;SDS011;7516;43.570;1.448;2024-01-07T11:51:19;2.83;;;2.10;;
14847;SDS011;7516;43.570;1.448;2024-01-07T11:53:46;2.77;;;2.30;;
14847;SDS011;7516;43.570;1.448;2024-01-07T11:56:16;3.73;;;2.27;;
14847;SDS011;7516;43.570;1.448;2024-01-07T11:58:43;5.40;;;2.43;;
14847;SDS011;7516;43.570;1.448;2024-01-07T12:01:13;5.77;;;2.17;;
14847;SDS011;7516;43.570;1.448;2024-01-07T12:03:43;3.73;;;2.30;;
14847;SDS011;7516;43.570;1.448;2024-01-07T12:06:10;3.50;;;2.40;;
14847;SDS011;7516;43.570;1.448;2024-01-07T12:08:39;4.43;;;2.27;;
14847;SDS011;7516;43.570;1.448;2024-01-07T12:11:07;3.77;;;2.53;;
14847;SDS011;7516;43.570;1.448;2024-01-07T12:13:37;3.67;;;2.10;;
14847;SDS011;7516;43.570;1.448;2024-01-07T12:16:05;2.77;;;1.80;;
14847;SDS011;7516;43.570;1.448;2024-01-07T12:18:37;2.30;;;1.87;;
14847;SDS011;7516;43.570;1.448;2024-01-07T12:21:04;3.00;;;2.13;;
14847;SDS011;7516;43.570;1.448;2024-01-07T12:23:34;4.80;;;2.20;;
14847;SDS011;7516;43.570;1.448;2024-01-07T12:26:06;3.07;;;2.23;;
14847;SDS011;7516;43.570;1.448;2024-01-07T12:28:35;2.73;;;2.00;;
14847;SDS011;7516;43.570;1.448;2024-01-07T12:31:03;2.53;;;2.00;;
14847;SDS011;7516;43.570;1.448;2024-01-07T12:33:31;3.87;;;2.13;;
14847;SDS011;7516;43.570;1.448;2024-01-07T12:36:01;2.93;;;2.30;;
14847;SDS011;7516;43.570;1.448;2024-01-07T12:38:28;2.60;;;2.10;;
14847;SDS011;7516;43.570;1.448;2024-01-07T12:40:56;3.27;;;2.00;;
14847;SDS011;7516;43.570;1.448;2024-01-07T12:43:23;3.47;;;2.00;;
14847;SDS011;7516;43.570;1.448;2024-01-07T12:45:51;2.73;;;2.10;;
14847;SDS011;7516;43.570;1.448;2024-01-07T12:48:20;2.37;;;1.80;;
14847;SDS011;7516;43.570;1.448;2024-01-07T12:50:48;3.27;;;2.13;;
14847;SDS011;7516;43.570;1.448;2024-01-07T12:53:17;1.97;;;1.70;;
14847;SDS011;7516;43.570;1.448;2024-01-07T12:55:44;2.20;;;1.70;;
14847;SDS011;7516;43.570;1.448;2024-01-07T12:58:12;3.23;;;1.70;;
14847;SDS011;7516;43.570;1.448;2024-01-07T13:00:39;2.90;;;2.00;;
14847;SDS011;7516;43.570;1.448;2024-01-07T13:03:07;3.03;;;2.10;;
14847;SDS011;7516;43.570;1.448;2024-01-07T13:05:39;3.40;;;2.03;;
14847;SDS011;7516;43.570;1.448;2024-01-07T13:08:07;3.00;;;2.30;;
14847;SDS011;7516;43.570;1.448;2024-01-07T13:10:36;2.23;;;1.83;;
14847;SDS011;7516;43.570;1.448;2024-01-07T13:13:04;2.77;;;2.30;;
14847;SDS011;7516;43.570;1.448;2024-01-07T13:15:32;2.20;;;1.90;;
14847;SDS011;7516;43.570;1.448;2024-01-07T13:17:59;3.63;;;2.60;;
14847;SDS011;7516;43.570;1.448;2024-01-07T13:20:27;3.57;;;2.20;;
14847;SDS011;7516;43.570;1.448;2024-01-07T13:22:55;4.30;;;2.17;;
14847;SDS011;7516;43.570;1.448;2024-01-07T13:25:22;2.67;;;2.07;;
14847;SDS011;7516;43.570;1.448;2024-01-07T13:27:51;2.67;;;1.50;;
14847;SDS011;7516;43.570;1.448;2024-01-07T13:30:19;2.90;;;2.00;;
14847;SDS011;7516;43.570;1.448;2024-01-07T13:32:47;2.30;;;1.80;;
14847;SDS011;7516;43.570;1.448;2024-01-07T13:35:16;2.97;;;1.93;;
14847;SDS011;7516;43.570;1.448;2024-01-07T13:37:44;3.00;;;1.90;;
14847;SDS011;7516;43.570;1.448;2024-01-07T13:40:12;1.77;;;1.50;;
14847;SDS011;7516;43.570;1.448;2024-01-07T13:42:40;2.20;;;1.53;;
14847;SDS011;7516;43.570;1.448;2024-01-07T13:45:09;3.00;;;1.77;;
14847;SDS011;7516;43.570;1.448;2024-01-07T13:47:38;4.00;;;1.90;;
14847;SDS011;7516;43.570;1.448;2024-01-07T13:50:06;3.80;;;1.57;;
14847;SDS011;7516;43.570;1.448;2024-01-07T13:52:35;3.53;;;1.60;;
14847;SDS011;7516;43.570;1.448;2024-01-07T13:55:03;3.00;;;1.40;;
14847;SDS011;7516;43.570;1.448;2024-01-07T13:57:32;3.07;;;1.90;;
14847;SDS011;7516;43.570;1.448;2024-01-07T13:59:59;4.23;;;1.57;;
14847;SDS011;7516;43.570;1.448;2024-01-07T14:02:34;2.87;;;1.63;;
14847;SDS011;7516;43.570;1.448;2024-01-07T14:05:04;2.20;;;1.53;;
14847;SDS011;7516;43.570;1.448;2024-01-07T14:07:34;2.83;;;1.63;;
14847;SDS011;7516;43.570;1.448;2024-01-07T14:10:01;2.40;;;1.50;;
14847;SDS011;7516;43.570;1.448;2024-01-07T14:12:29;2.43;;;1.40;;
14847;SDS011;7516;43.570;1.448;2024-01-07T14:14:57;1.53;;;1.20;;
14847;SDS011;7516;43.570;1.448;2024-01-07T14:17:25;3.30;;;1.40;;
14847;SDS011;7516;43.570;1.448;2024-01-07T14:19:53;2.27;;;1.30;;
14847;SDS011;7516;43.570;1.448;2024-01-07T14:22:21;2.30;;;1.40;;
14847;SDS011;7516;43.570;1.448;2024-01-07T14:24:49;2.67;;;1.27;;
14847;SDS011;7516;43.570;1.448;2024-01-07T14:27:16;2.60;;;1.37;;
14847;SDS011;7516;43.570;1.448;2024-01-07T14:29:44;2.50;;;1.60;;
14847;SDS011;7516;43.570;1.448;2024-01-07T14:32:11;2.20;;;1.30;;
14847;SDS011;7516;43.570;1.448;2024-01-07T14:34:39;2.50;;;1.40;;
14847;SDS011;7516;43.570;1.448;2024-01-07T14:37:10;2.47;;;1.50;;
14847;SDS011;7516;43.570;1.448;2024-01-07T14:39:38;2.33;;;1.50;;
14847;SDS011;7516;43.570;1.448;2024-01-07T14:42:05;2.27;;;1.30;;
14847;SDS011;7516;43.570;1.448;2024-01-07T14:44:34;1.87;;;1.50;;
14847;SDS011;7516;43.570;1.448;2024-01-07T14:47:01;2.77;;;1.63;;
14847;SDS011;7516;43.570;1.448;2024-01-07T14:49:29;2.40;;;1.30;;
14847;SDS011;7516;43.570;1.448;2024-01-07T14:51:57;3.53;;;1.43;;
14847;SDS011;7516;43.570;1.448;2024-01-07T14:54:26;2.27;;;1.47;;
14847;SDS011;7516;43.570;1.448;2024-01-07T14:56:56;1.70;;;1.50;;
14847;SDS011;7516;43.570;1.448;2024-01-07T14:59:24;2.03;;;1.20;;
14847;SDS011;7516;43.570;1.448;2024-01-07T15:01:51;3.23;;;1.80;;
14847;SDS011;7516;43.570;1.448;2024-01-07T15:04:19;3.50;;;1.60;;
14847;SDS011;7516;43.570;1.448;2024-01-07T15:06:46;2.30;;;1.70;;